Fenwick, West Virginia
Current Conditions -  °F | °C
As of 4:35 AM on Sunday 26 Oct 2014 (Local Time) from KLWB Reporting Station
Broken Clouds Broken Clouds  
Wind Chill: 15°   Ceiling: 3900
Heat Index: 15°   Visibility: 10mi
Dew Point:   Wind: 6mph
Humidity: 69%   Direction: 280°W
Pressure: 29.86"   Gusts: NA
Location:  38.23°N, 80.58°W
Report Text: KLWB 260835Z AUTO 28005KT 10SM SCT032 BKN039 BKN045 15/09 A2986 RMK AO2 T01500093
Loading
Personal Weather Stations






























Interactive Weather Map
Tropical Storm Tracking
New forecast layout! Learn more

10-Day Weather Forecast

Advertisements
Track Severe Weather on mobile